MST,Max TemperatureF,Mean TemperatureF,Min TemperatureF,Max Dew PointF,MeanDew PointF,Min DewpointF,Max Humidity, Mean Humidity, Min Humidity, Max Sea Level PressureIn, Mean Sea Level PressureIn, Min Sea Level PressureIn, Max VisibilityMiles, Mean VisibilityMiles, Min VisibilityMiles, Max Wind SpeedMPH, Mean Wind SpeedMPH, Max Gust SpeedMPH,PrecipitationIn, CloudCover, Events, WindDirDegrees
2013-2-1,43,33,23,13,11,7,60,36,25,30.32,30.23,30.19,10,10,10,29,12,44,0.00,0,,264
2013-2-2,49,36,24,10,7,3,54,31,15,30.43,30.39,30.32,10,10,10,17,8,26,0.00,0,,279
2013-2-3,49,36,22,13,6,-5,48,33,10,30.39,30.18,30.04,10,10,10,25,11,34,0.00,1,,283
2013-2-4,49,34,20,12,4,-2,57,30,13,30.15,30.10,30.03,10,10,10,23,10,32,0.00,0,,261
2013-2-5,54,38,22,14,9,4,53,33,13,30.20,30.11,30.05,10,10,10,15,6,20,0.00,0,,281
2013-2-6,52,38,24,23,15,5,65,43,16,30.10,30.01,29.94,10,10,4,22,9,28,0.00,1,,281
2013-2-7,49,32,16,23,11,-3,76,46,12,30.26,30.18,30.12,10,10,10,16,6,25,0.00,0,,240
2013-2-8,46,33,20,24,17,10,70,48,27,30.19,29.98,29.80,10,10,10,22,8,38,0.00,2,,183
2013-2-9,37,32,26,26,15,6,90,51,33,29.81,29.63,29.53,10,10,0,23,8,28,0.00,4,,214
2013-2-10,36,28,21,21,6,-4,91,44,19,29.95,29.80,29.64,10,9,2,16,11,24,0.00,3,,220
2013-2-11,22,14,6,19,12,2,91,84,65,30.07,29.99,29.95,10,6,0,15,7,22,0.00,5,,121
2013-2-12,33,16,-2,10,3,-8,89,58,33,30.12,30.09,30.03,10,10,10,21,5,28,0.00,0,,261
2013-2-13,42,28,15,14,10,5,65,46,30,30.15,30.11,30.04,10,10,7,20,10,28,0.00,0,,280
2013-2-14,41,29,17,17,11,3,82,52,21,30.27,30.16,30.09,10,10,10,23,6,29,0.00,2,,273
2013-2-15,39,26,12,14,4,-8,88,47,14,30.39,30.31,30.24,10,10,10,17,6,30,0.00,1,,322
2013-2-16,49,36,22,7,5,1,51,30,17,30.40,30.28,30.17,10,10,10,23,12,34,0.00,0,,265
2013-2-17,48,38,28,19,0,-7,60,22,11,30.16,29.92,29.74,10,10,10,21,11,29,0.00,0,,237
2013-2-18,36,27,18,20,3,-5,82,37,19,30.14,30.01,29.80,10,10,2,30,11,37,0.00,2,,277
2013-2-19,42,26,10,5,-4,-15,45,29,9,30.14,29.99,29.82,10,10,10,21,9,29,0.00,0,,286
2013-2-20,40,30,20,28,15,3,95,62,36,29.82,29.68,29.57,10,9,0,16,4,22,0.00,5,,131
2013-2-21,38,28,18,25,20,15,95,78,42,29.87,29.71,29.59,10,8,1,20,3,26,0.00,5,,192
2013-2-22,34,23,12,21,11,5,90,64,41,29.98,29.90,29.85,10,10,5,16,3,23,0.00,3,,311
2013-2-23,37,26,16,23,9,0,76,47,28,29.97,29.82,29.68,10,10,2,29,10,41,0.00,2,,242
2013-2-24,28,18,7,23,15,3,91,73,53,30.06,29.84,29.68,10,8,0,14,4,20,0.00,7,,303
2013-2-25,39,18,-3,15,5,-7,86,58,32,30.09,30.00,29.89,10,10,10,17,3,25,0.00,0,,268
2013-2-26,32,24,14,19,10,3,79,55,36,30.13,29.89,29.79,10,10,1,20,7,24,0.00,5,,310
2013-2-27,37,20,3,5,1,-4,76,46,24,30.29,30.23,30.14,10,10,10,22,7,29,0.00,1,,267
2013-2-28,40,24,7,12,3,-3,66,43,22,30.35,30.30,30.21,10,10,10,22,8,26,0.00,1,,268